createdAt,value
2019-05-20T00:01:58.482Z,10.27
2019-05-20T00:04:26.965Z,9.63
2019-05-20T00:06:55.691Z,10.20
2019-05-20T00:09:24.176Z,9.77
2019-05-20T00:11:53.821Z,9.97
2019-05-20T00:14:22.680Z,10.87
2019-05-20T00:16:51.208Z,10.90
2019-05-20T00:19:19.695Z,10.87
2019-05-20T00:21:48.175Z,11.30
2019-05-20T00:24:16.918Z,11.13
2019-05-20T00:26:45.657Z,10.60
2019-05-20T00:29:14.114Z,11.30
2019-05-20T00:31:42.662Z,10.00
2019-05-20T00:34:11.412Z,10.77
2019-05-20T00:36:39.896Z,10.90
2019-05-20T00:39:15.727Z,10.10
2019-05-20T00:41:44.542Z,10.70
2019-05-20T00:44:13.298Z,10.37
2019-05-20T00:46:41.946Z,10.27
2019-05-20T00:49:10.489Z,10.87
2019-05-20T00:51:39.029Z,11.83
2019-05-20T00:54:07.741Z,9.60
2019-05-20T00:56:37.300Z,9.83
2019-05-20T00:59:06.237Z,10.27
2019-05-20T01:01:34.788Z,10.23
2019-05-20T01:04:03.606Z,11.43
2019-05-20T01:06:32.084Z,12.00
2019-05-20T01:09:00.580Z,11.63
2019-05-20T01:11:29.048Z,10.53
2019-05-20T01:13:57.530Z,10.67
2019-05-20T01:16:26.064Z,10.80
2019-05-20T01:18:54.640Z,10.60
2019-05-20T01:21:23.219Z,11.13
2019-05-20T01:23:51.701Z,11.47
2019-05-20T01:26:20.251Z,10.23
2019-05-20T01:28:48.788Z,10.07
2019-05-20T01:31:17.269Z,11.30
2019-05-20T01:33:45.735Z,11.13
2019-05-20T01:36:14.268Z,11.43
2019-05-20T01:38:42.773Z,11.33
2019-05-20T01:41:11.259Z,10.17
2019-05-20T01:43:39.731Z,10.87
2019-05-20T01:46:08.199Z,11.10
2019-05-20T01:48:36.699Z,10.57
2019-05-20T01:51:05.243Z,10.57
2019-05-20T01:53:33.725Z,10.23
2019-05-20T01:56:02.224Z,11.43
2019-05-20T01:58:30.786Z,11.23
2019-05-20T02:00:59.343Z,10.73
2019-05-20T02:03:31.652Z,10.90
2019-05-20T02:05:58.030Z,11.30
2019-05-20T02:08:26.607Z,10.40
2019-05-20T02:10:56.820Z,11.37
2019-05-20T02:13:26.915Z,11.10
2019-05-20T02:16:02.895Z,10.57
2019-05-20T02:18:31.383Z,10.90
2019-05-20T02:20:59.937Z,9.47
2019-05-20T02:23:28.427Z,10.63
2019-05-20T02:25:56.905Z,10.20
2019-05-20T02:28:25.379Z,10.67
2019-05-20T02:30:56.827Z,10.43
2019-05-20T02:33:24.318Z,10.43
2019-05-20T02:35:52.810Z,9.80
2019-05-20T02:38:21.263Z,10.60
2019-05-20T02:40:49.733Z,9.40
2019-05-20T02:43:18.223Z,9.27
2019-05-20T02:45:46.756Z,8.80
2019-05-20T02:48:15.294Z,8.83
2019-05-20T02:50:43.782Z,7.87
2019-05-20T02:53:12.349Z,7.87
2019-05-20T02:55:40.827Z,7.63
2019-05-20T02:58:09.307Z,7.40
2019-05-20T03:00:37.784Z,6.70
2019-05-20T03:03:06.273Z,6.70
2019-05-20T03:05:34.740Z,5.70
2019-05-20T03:08:03.227Z,6.47
2019-05-20T03:10:31.698Z,6.63
2019-05-20T03:13:00.250Z,6.20
2019-05-20T03:15:28.706Z,5.80
2019-05-20T03:17:57.217Z,5.83
2019-05-20T03:20:25.742Z,6.47
2019-05-20T03:22:54.258Z,7.23
2019-05-20T03:25:22.748Z,6.37
2019-05-20T03:27:51.485Z,7.30
2019-05-20T03:30:20.285Z,7.63
2019-05-20T03:32:48.813Z,7.70
2019-05-20T03:35:17.373Z,8.70
2019-05-20T03:37:45.874Z,9.50
2019-05-20T03:40:18.774Z,9.93
2019-05-20T03:42:47.608Z,9.83
2019-05-20T03:45:16.146Z,10.27
2019-05-20T03:47:44.631Z,10.33
2019-05-20T03:50:13.319Z,9.93
2019-05-20T03:52:41.818Z,10.73
2019-05-20T03:55:10.822Z,10.67
2019-05-20T03:57:39.325Z,10.77
2019-05-20T04:00:08.412Z,11.10
2019-05-20T04:02:36.875Z,10.23
2019-05-20T04:05:05.828Z,10.13
2019-05-20T04:07:34.332Z,9.50
2019-05-20T04:10:02.974Z,9.07
2019-05-20T04:12:31.460Z,9.07
2019-05-20T04:14:59.918Z,8.73
2019-05-20T04:17:28.468Z,9.13
2019-05-20T04:19:57.219Z,8.73
2019-05-20T04:22:25.695Z,8.70
2019-05-20T04:24:54.219Z,7.93
2019-05-20T04:27:22.780Z,7.63
2019-05-20T04:29:51.319Z,7.03
2019-05-20T04:32:19.785Z,7.27
2019-05-20T04:34:48.335Z,8.60
2019-05-20T04:37:16.789Z,7.80
2019-05-20T04:39:45.346Z,8.27
2019-05-20T04:42:13.827Z,9.00
2019-05-20T04:44:42.317Z,9.47
2019-05-20T04:47:10.780Z,9.20
2019-05-20T04:49:39.267Z,10.90
2019-05-20T04:52:07.733Z,9.70
2019-05-20T04:54:36.203Z,11.07
2019-05-20T04:57:04.992Z,10.37
2019-05-20T04:59:33.470Z,10.20
2019-05-20T05:02:01.937Z,10.43
2019-05-20T05:04:30.406Z,9.60
2019-05-20T05:06:58.890Z,11.40
2019-05-20T05:09:27.453Z,10.60
2019-05-20T05:11:56.028Z,11.17
2019-05-20T05:14:24.906Z,11.70
2019-05-20T05:16:53.458Z,12.90
2019-05-20T05:19:21.933Z,12.70
2019-05-20T05:21:50.563Z,12.07
2019-05-20T05:24:19.171Z,12.10
2019-05-20T05:26:48.046Z,12.70
2019-05-20T05:29:16.717Z,11.80
2019-05-20T05:31:45.469Z,13.40
2019-05-20T05:34:14.023Z,12.60
2019-05-20T05:36:42.635Z,11.87
2019-05-20T05:39:11.194Z,11.93
2019-05-20T05:41:39.650Z,12.00
2019-05-20T05:44:08.140Z,11.97
2019-05-20T05:46:36.711Z,12.23
2019-05-20T05:49:05.424Z,11.90
2019-05-20T05:51:33.970Z,11.70
2019-05-20T05:54:02.441Z,12.57
2019-05-20T05:56:30.996Z,12.27
2019-05-20T05:58:59.451Z,12.43
2019-05-20T06:01:27.949Z,12.47
2019-05-20T06:03:56.487Z,13.53
2019-05-20T06:06:24.971Z,13.17
2019-05-20T06:08:53.729Z,13.30
2019-05-20T06:11:22.202Z,14.17
2019-05-20T06:13:50.654Z,14.53
2019-05-20T06:16:35.332Z,14.70
2019-05-20T06:18:49.598Z,15.03
2019-05-20T06:21:18.096Z,15.10
2019-05-20T06:23:46.573Z,15.60
2019-05-20T06:26:15.363Z,15.20
2019-05-20T06:28:43.925Z,16.43
2019-05-20T06:31:12.527Z,14.87
2019-05-20T06:33:41.105Z,16.03
2019-05-20T06:36:09.557Z,15.87
2019-05-20T06:38:40.539Z,16.53
2019-05-20T06:41:09.534Z,15.77
2019-05-20T06:43:38.131Z,16.63
2019-05-20T06:46:06.712Z,16.67
2019-05-20T06:48:35.263Z,15.80
2019-05-20T06:51:03.809Z,17.37
2019-05-20T06:53:32.647Z,16.00
2019-05-20T06:56:01.127Z,15.97
2019-05-20T06:58:29.743Z,16.80
2019-05-20T07:00:58.202Z,16.73
2019-05-20T07:03:26.852Z,17.43
2019-05-20T07:05:55.320Z,17.20
2019-05-20T07:08:23.887Z,16.63
2019-05-20T07:10:52.408Z,16.87
2019-05-20T07:13:20.870Z,17.70
2019-05-20T07:15:49.357Z,18.60
2019-05-20T07:18:17.818Z,18.57
2019-05-20T07:20:46.307Z,19.30
2019-05-20T07:23:14.797Z,19.13
2019-05-20T07:25:43.356Z,19.90
2019-05-20T07:28:11.891Z,21.00
2019-05-20T07:30:40.510Z,21.30
2019-05-20T07:33:09.051Z,20.87
2019-05-20T07:35:37.559Z,22.03
2019-05-20T07:38:06.077Z,21.03
2019-05-20T07:40:34.708Z,22.77
2019-05-20T07:43:03.324Z,20.93
2019-05-20T07:45:34.368Z,22.50
2019-05-20T07:48:03.979Z,21.97
2019-05-20T07:50:33.679Z,22.37
2019-05-20T07:53:02.217Z,22.17
2019-05-20T07:55:33.901Z,21.77
2019-05-20T07:58:08.498Z,22.73
2019-05-20T08:00:37.452Z,22.60
2019-05-20T08:03:06.112Z,22.13
2019-05-20T08:05:34.732Z,21.07
2019-05-20T08:08:03.187Z,22.40
2019-05-20T08:10:31.679Z,22.30
2019-05-20T08:13:00.230Z,22.33
2019-05-20T08:15:28.854Z,21.90
2019-05-20T08:17:57.378Z,22.83
2019-05-20T08:20:26.025Z,23.30
2019-05-20T08:22:54.496Z,23.57
2019-05-20T08:25:23.141Z,22.47
2019-05-20T08:27:51.673Z,22.87
2019-05-20T08:30:26.144Z,22.43
2019-05-20T08:32:54.627Z,23.83
2019-05-20T08:35:23.819Z,25.07
2019-05-20T08:37:52.493Z,23.47
2019-05-20T08:40:21.054Z,22.87
2019-05-20T08:42:49.518Z,22.27
2019-05-20T08:45:18.138Z,22.83
2019-05-20T08:47:46.610Z,22.87
2019-05-20T08:50:16.317Z,22.17
2019-05-20T08:52:45.207Z,23.23
2019-05-20T08:55:14.248Z,23.10
2019-05-20T08:57:42.803Z,22.63
2019-05-20T09:00:23.347Z,23.30
2019-05-20T09:02:50.154Z,23.33
2019-05-20T09:05:18.992Z,22.00
2019-05-20T09:08:01.409Z,23.10
2019-05-20T09:10:18.545Z,21.97
2019-05-20T09:12:47.150Z,22.70
2019-05-20T09:15:15.874Z,22.30
2019-05-20T09:17:44.429Z,22.33
2019-05-20T09:20:13.283Z,22.73
2019-05-20T09:22:42.473Z,19.87
2019-05-20T09:25:11.921Z,22.13
2019-05-20T09:27:40.679Z,20.47
2019-05-20T09:30:11.177Z,22.30
2019-05-20T09:32:42.784Z,22.47
2019-05-20T09:35:10.228Z,22.50
2019-05-20T09:37:38.835Z,22.23
2019-05-20T09:40:07.661Z,22.10
2019-05-20T09:42:36.174Z,22.20
2019-05-20T09:45:06.438Z,21.67
2019-05-20T09:47:34.994Z,21.47
2019-05-20T09:50:03.988Z,22.43
2019-05-20T09:52:32.441Z,21.90
2019-05-20T09:55:00.941Z,21.67
2019-05-20T09:57:29.490Z,22.00
2019-05-20T09:59:57.979Z,22.20
2019-05-20T10:02:36.430Z,22.27
2019-05-20T10:04:56.818Z,22.23
2019-05-20T10:07:25.323Z,22.23
2019-05-20T10:09:53.870Z,21.77
2019-05-20T10:12:24.019Z,22.07
2019-05-20T10:14:52.928Z,22.07
2019-05-20T10:17:21.570Z,21.50
2019-05-20T10:19:50.055Z,22.30
2019-05-20T10:22:18.628Z,21.67
2019-05-20T10:24:47.111Z,22.33
2019-05-20T10:27:15.657Z,21.73
2019-05-20T10:29:44.157Z,22.33
2019-05-20T10:32:12.627Z,22.13
2019-05-20T10:34:41.171Z,23.03
2019-05-20T10:37:09.651Z,20.30
2019-05-20T10:39:38.141Z,22.17
2019-05-20T10:42:06.726Z,21.87
2019-05-20T10:44:35.229Z,21.33
2019-05-20T10:47:03.711Z,20.10
2019-05-20T10:49:32.547Z,20.07
2019-05-20T10:52:01.097Z,19.87
2019-05-20T10:54:29.713Z,18.83
2019-05-20T10:56:59.756Z,18.20
2019-05-20T10:59:28.451Z,18.10
2019-05-20T11:01:56.987Z,18.17
2019-05-20T11:04:25.455Z,17.53
2019-05-20T11:06:53.954Z,17.30
2019-05-20T11:09:22.426Z,17.30
2019-05-20T11:11:50.898Z,16.67
2019-05-20T11:14:19.374Z,15.63
2019-05-20T11:16:47.877Z,16.93
2019-05-20T11:19:16.335Z,16.27
2019-05-20T11:21:44.808Z,16.27
2019-05-20T11:24:13.301Z,14.90
2019-05-20T11:26:41.813Z,15.83
2019-05-20T11:29:10.293Z,15.50
2019-05-20T11:31:38.829Z,16.33
2019-05-20T11:34:07.529Z,15.00
2019-05-20T11:36:36.084Z,15.40
2019-05-20T11:39:07.424Z,15.57
2019-05-20T11:44:06.365Z,16.10
2019-05-20T11:46:34.831Z,15.10
2019-05-20T11:49:03.316Z,16.07
2019-05-20T11:51:31.784Z,15.13
2019-05-20T11:54:00.271Z,15.80
2019-05-20T11:56:28.798Z,14.63
2019-05-20T11:58:57.284Z,14.97
2019-05-20T12:01:25.844Z,14.53
2019-05-20T12:03:54.337Z,14.93
2019-05-20T12:06:22.895Z,15.07
2019-05-20T12:08:51.379Z,15.50
2019-05-20T12:11:20.009Z,15.03
2019-05-20T12:13:48.498Z,16.47
2019-05-20T12:16:17.001Z,15.67
2019-05-20T12:18:45.506Z,15.50
2019-05-20T12:21:13.971Z,16.13
2019-05-20T12:23:42.471Z,16.87
2019-05-20T12:26:10.956Z,16.70
2019-05-20T12:28:39.459Z,17.03
2019-05-20T12:31:07.959Z,16.33
2019-05-20T12:33:36.723Z,16.57
2019-05-20T12:36:05.553Z,16.37
2019-05-20T12:38:34.048Z,17.87
2019-05-20T12:41:02.755Z,17.43
2019-05-20T12:43:31.683Z,16.17
2019-05-20T12:46:00.171Z,16.87
2019-05-20T12:48:28.634Z,17.03
2019-05-20T12:50:57.087Z,16.50
2019-05-20T12:53:25.580Z,16.40
2019-05-20T12:55:54.039Z,16.90
2019-05-20T12:58:22.511Z,16.20
2019-05-20T13:00:51.253Z,15.40
2019-05-20T13:03:19.921Z,16.60
2019-05-20T13:05:48.786Z,16.10
2019-05-20T13:08:17.282Z,18.63
2019-05-20T13:10:45.755Z,17.77
2019-05-20T13:13:14.244Z,17.63
2019-05-20T13:15:42.717Z,16.83
2019-05-20T13:18:11.245Z,18.37
2019-05-20T13:20:39.839Z,18.57
2019-05-20T13:23:10.331Z,19.63
2019-05-20T13:25:38.546Z,20.10
2019-05-20T13:28:07.011Z,18.83
2019-05-20T13:30:35.562Z,19.63
2019-05-20T13:33:04.142Z,20.83
2019-05-20T13:35:32.649Z,22.57
2019-05-20T13:38:01.181Z,24.47
2019-05-20T13:40:45.106Z,22.67
2019-05-20T13:42:59.847Z,19.83
2019-05-20T13:45:28.383Z,19.73
2019-05-20T13:47:56.913Z,18.17
2019-05-20T13:50:25.397Z,17.43
2019-05-20T13:52:53.882Z,17.97
2019-05-20T13:55:22.599Z,18.13
2019-05-20T13:57:51.120Z,18.33
2019-05-20T14:00:20.914Z,17.37
2019-05-20T14:02:49.378Z,17.70
2019-05-20T14:05:17.934Z,18.10
2019-05-20T14:07:46.531Z,17.37
2019-05-20T14:10:15.313Z,19.40
2019-05-20T14:12:43.825Z,20.00
2019-05-20T14:15:13.114Z,19.03
2019-05-20T14:17:41.584Z,19.80
2019-05-20T14:20:10.676Z,20.40
2019-05-20T14:22:39.294Z,20.17
2019-05-20T14:25:08.225Z,20.23
2019-05-20T14:27:36.673Z,20.80
2019-05-20T14:30:07.643Z,20.83
2019-05-20T14:32:36.443Z,21.03
2019-05-20T14:35:07.200Z,20.47
2019-05-20T14:37:35.855Z,21.57
2019-05-20T14:40:06.796Z,22.60
2019-05-20T14:42:35.423Z,23.33
2019-05-20T14:45:04.937Z,21.80
2019-05-20T14:47:33.503Z,21.43
2019-05-20T14:50:02.062Z,21.53
2019-05-20T14:52:30.527Z,21.57
2019-05-20T14:54:59.013Z,23.70
2019-05-20T14:57:27.547Z,25.23
2019-05-20T14:59:56.040Z,21.90
2019-05-20T15:02:24.508Z,23.70
2019-05-20T15:04:53.010Z,23.07
2019-05-20T15:07:29.861Z,23.00
2019-05-20T15:09:51.737Z,22.73
2019-05-20T15:12:20.271Z,23.43
2019-05-20T15:14:48.769Z,23.47
2019-05-20T15:17:17.286Z,23.67
2019-05-20T15:19:45.837Z,23.07
2019-05-20T15:22:14.341Z,24.33
2019-05-20T15:24:42.819Z,24.57
2019-05-20T15:27:11.313Z,25.13
2019-05-20T15:29:39.769Z,24.30
2019-05-20T15:32:08.262Z,24.97
2019-05-20T15:34:36.805Z,24.30
2019-05-20T15:37:05.301Z,27.40
2019-05-20T15:39:33.841Z,24.57
2019-05-20T15:42:02.363Z,26.03
2019-05-20T15:44:30.950Z,26.73
2019-05-20T15:46:59.622Z,25.93
2019-05-20T15:49:28.172Z,31.67
2019-05-20T15:51:56.661Z,26.87
2019-05-20T15:54:25.241Z,28.80
2019-05-20T15:56:53.770Z,27.87
2019-05-20T15:59:22.234Z,28.60
2019-05-20T16:01:50.703Z,28.03
2019-05-20T16:04:19.195Z,25.90
2019-05-20T16:06:47.731Z,24.60
2019-05-20T16:09:17.196Z,24.80
2019-05-20T16:11:45.989Z,24.90
2019-05-20T16:14:14.468Z,25.77
2019-05-20T16:16:42.990Z,25.13
2019-05-20T16:19:11.477Z,26.17
2019-05-20T16:21:40.015Z,27.00
2019-05-20T16:24:08.561Z,27.33
2019-05-20T16:26:37.080Z,26.87
2019-05-20T16:29:05.734Z,26.93
2019-05-20T16:31:34.456Z,30.13
2019-05-20T16:34:03.010Z,29.23
2019-05-20T16:36:31.500Z,28.10
2019-05-20T16:38:59.980Z,28.30
2019-05-20T16:41:28.457Z,25.70
2019-05-20T16:43:56.957Z,27.00
2019-05-20T16:46:25.525Z,28.50
2019-05-20T16:48:53.993Z,27.80
2019-05-20T16:51:22.795Z,26.73
2019-05-20T16:53:51.574Z,28.10
2019-05-20T16:56:20.379Z,28.20
2019-05-20T16:58:48.847Z,26.33
2019-05-20T17:01:17.343Z,28.00
2019-05-20T17:03:45.815Z,26.67
2019-05-20T17:06:14.274Z,26.63
2019-05-20T17:08:42.781Z,27.27
2019-05-20T17:11:11.293Z,26.40
2019-05-20T17:13:39.792Z,25.30
2019-05-20T17:16:08.255Z,26.10
2019-05-20T17:18:36.757Z,26.50
2019-05-20T17:21:05.269Z,24.47
2019-05-20T17:23:33.771Z,25.43
2019-05-20T17:26:02.241Z,22.40
2019-05-20T17:28:30.795Z,22.53
2019-05-20T17:30:59.382Z,20.83
2019-05-20T17:33:27.886Z,21.03
2019-05-20T17:35:56.427Z,19.97
2019-05-20T17:38:24.897Z,20.40
2019-05-20T17:40:53.397Z,19.27
2019-05-20T17:43:21.954Z,18.87
2019-05-20T17:45:50.426Z,19.00
2019-05-20T17:48:18.966Z,18.60
2019-05-20T17:50:47.528Z,19.10
2019-05-20T17:53:15.999Z,18.60
2019-05-20T17:55:44.489Z,17.70
2019-05-20T17:58:12.979Z,18.50
2019-05-20T18:00:41.526Z,19.37
2019-05-20T18:03:10.318Z,18.43
2019-05-20T18:05:39.060Z,19.33
2019-05-20T18:08:07.785Z,19.27
2019-05-20T18:10:36.346Z,20.20
2019-05-20T18:13:04.879Z,19.97
2019-05-20T18:15:33.381Z,19.67
2019-05-20T18:18:01.845Z,19.40
2019-05-20T18:20:30.629Z,19.03
2019-05-20T18:22:59.166Z,18.60
2019-05-20T18:25:27.664Z,18.77
2019-05-20T18:27:56.145Z,18.77
2019-05-20T18:30:25.503Z,18.30
2019-05-20T18:32:54.039Z,19.20
2019-05-20T18:35:22.706Z,18.37
2019-05-20T18:37:51.459Z,18.43
2019-05-20T18:40:20.005Z,19.00
2019-05-20T18:42:48.496Z,18.30
2019-05-20T18:45:17.090Z,19.07
2019-05-20T18:47:45.550Z,20.50
2019-05-20T18:50:14.689Z,19.80
2019-05-20T18:52:43.155Z,19.77
2019-05-20T18:55:11.793Z,18.90
2019-05-20T18:57:40.256Z,19.70
2019-05-20T19:00:10.261Z,19.27
2019-05-20T19:02:38.866Z,20.00
2019-05-20T19:05:08.045Z,18.57
2019-05-20T19:07:36.593Z,19.93
2019-05-20T19:10:06.110Z,20.20
2019-05-20T19:12:34.673Z,20.40
2019-05-20T19:15:03.596Z,21.17
2019-05-20T19:17:32.163Z,19.63
2019-05-20T19:20:00.706Z,21.57
2019-05-20T19:22:29.193Z,19.90
2019-05-20T19:24:57.688Z,19.87
2019-05-20T19:27:26.175Z,19.97
2019-05-20T19:29:54.648Z,21.10
2019-05-20T19:32:23.477Z,20.23
2019-05-20T19:34:51.947Z,20.63
2019-05-20T19:37:20.505Z,19.60
2019-05-20T19:39:49.152Z,19.13
2019-05-20T19:42:17.729Z,20.00
2019-05-20T19:44:46.189Z,18.37
2019-05-20T19:47:14.689Z,18.27
2019-05-20T19:49:43.231Z,18.83
2019-05-20T19:52:11.783Z,19.20
2019-05-20T19:54:40.273Z,18.70
2019-05-20T19:57:08.731Z,19.80
2019-05-20T19:59:37.200Z,19.13
2019-05-20T20:02:16.931Z,19.03
2019-05-20T20:04:35.881Z,19.00
2019-05-20T20:07:04.499Z,19.47
2019-05-20T20:09:32.989Z,18.27
2019-05-20T20:12:01.464Z,20.10
2019-05-20T20:14:30.022Z,19.20
2019-05-20T20:16:58.477Z,20.57
2019-05-20T20:19:26.967Z,20.20
2019-05-20T20:21:55.446Z,19.33
2019-05-20T20:24:23.936Z,19.83
2019-05-20T20:26:52.484Z,19.87
2019-05-20T20:29:20.949Z,20.93
2019-05-20T20:31:49.429Z,18.50
2019-05-20T20:34:17.903Z,18.43
2019-05-20T20:36:46.395Z,17.70
2019-05-20T20:39:14.891Z,17.70
2019-05-20T20:41:43.424Z,17.27
2019-05-20T20:44:12.007Z,17.97
2019-05-20T20:46:40.811Z,15.90
2019-05-20T20:49:09.457Z,14.87
2019-05-20T20:51:37.922Z,15.03
2019-05-20T20:54:06.459Z,14.53
2019-05-20T20:56:34.949Z,14.10
2019-05-20T20:59:03.755Z,13.63
2019-05-20T21:01:32.237Z,13.10
2019-05-20T21:04:00.707Z,13.77
2019-05-20T21:06:29.210Z,12.73
2019-05-20T21:08:57.661Z,12.57
2019-05-20T21:11:26.240Z,12.77
2019-05-20T21:13:54.717Z,12.73
2019-05-20T21:16:23.198Z,12.73
2019-05-20T21:18:51.674Z,13.07
2019-05-20T21:21:20.153Z,12.93
2019-05-20T21:23:48.646Z,12.07
2019-05-20T21:26:17.109Z,12.67
2019-05-20T21:28:45.673Z,13.47
2019-05-20T21:31:14.144Z,11.90
2019-05-20T21:33:42.627Z,12.23
2019-05-20T21:36:11.163Z,12.67
2019-05-20T21:38:39.631Z,12.80
2019-05-20T21:41:08.117Z,12.40
2019-05-20T21:43:36.887Z,12.43
2019-05-20T21:46:05.390Z,12.07
2019-05-20T21:48:33.984Z,12.97
2019-05-20T21:51:02.507Z,12.40
2019-05-20T21:53:30.958Z,12.10
2019-05-20T21:55:59.442Z,12.23
2019-05-20T21:58:27.922Z,12.33
2019-05-20T22:00:56.712Z,12.27
2019-05-20T22:03:25.582Z,12.47
2019-05-20T22:05:55.764Z,13.50
2019-05-20T22:08:24.396Z,13.93
2019-05-20T22:10:53.008Z,14.23
2019-05-20T22:13:21.547Z,14.47
2019-05-20T22:15:50.171Z,15.13
2019-05-20T22:18:18.727Z,15.00
2019-05-20T22:20:47.247Z,14.87
2019-05-20T22:23:23.093Z,15.17
2019-05-20T22:25:52.652Z,15.40
2019-05-20T22:28:21.170Z,15.87
2019-05-20T22:30:49.729Z,16.70
2019-05-20T22:33:18.224Z,17.57
2019-05-20T22:35:46.715Z,17.50
2019-05-20T22:38:15.195Z,17.03
2019-05-20T22:40:44.326Z,18.27
2019-05-20T22:43:13.167Z,17.97
2019-05-20T22:45:41.650Z,18.80
2019-05-20T22:48:10.537Z,18.37
2019-05-20T22:50:39.010Z,18.70
2019-05-20T22:53:07.558Z,19.03
2019-05-20T22:55:36.024Z,18.50
2019-05-20T22:58:04.566Z,20.33
2019-05-20T23:00:33.059Z,19.87
2019-05-20T23:03:01.542Z,19.10
2019-05-20T23:05:30.141Z,18.73
2019-05-20T23:07:58.938Z,19.37
2019-05-20T23:10:27.414Z,19.60
2019-05-20T23:12:55.907Z,17.97
2019-05-20T23:15:24.644Z,17.80
2019-05-20T23:17:53.145Z,18.07
2019-05-20T23:20:21.685Z,17.50
2019-05-20T23:22:50.254Z,16.73
2019-05-20T23:25:18.723Z,17.13
2019-05-20T23:27:47.201Z,16.57
2019-05-20T23:30:16.121Z,15.57
2019-05-20T23:32:44.583Z,15.80
2019-05-20T23:35:13.530Z,15.83
2019-05-20T23:37:41.997Z,15.73
2019-05-20T23:40:10.707Z,15.50
2019-05-20T23:42:39.206Z,15.57
2019-05-20T23:45:09.227Z,15.40
2019-05-20T23:47:37.688Z,15.80
2019-05-20T23:50:06.672Z,15.53
2019-05-20T23:52:35.135Z,14.37
2019-05-20T23:55:05.063Z,14.47
2019-05-20T23:57:33.557Z,15.47
